createdAt,value
2023-02-18T00:01:13.672Z,39.17
2023-02-18T00:03:41.647Z,40.92
2023-02-18T00:06:15.660Z,37.35
2023-02-18T00:08:43.700Z,40.65
2023-02-18T00:11:11.084Z,40.35
2023-02-18T00:13:37.995Z,34.80
2023-02-18T00:16:09.913Z,39.67
2023-02-18T00:18:37.613Z,40.35
2023-02-18T00:21:05.736Z,38.97
2023-02-18T00:23:32.810Z,41.20
2023-02-18T00:26:05.916Z,37.75
2023-02-18T00:28:33.311Z,39.38
2023-02-18T00:31:00.304Z,37.53
2023-02-18T00:33:27.168Z,39.40
2023-02-18T00:36:02.646Z,39.08
2023-02-18T00:38:29.880Z,38.85
2023-02-18T00:40:56.688Z,35.25
2023-02-18T00:43:23.556Z,40.50
2023-02-18T00:45:50.600Z,38.92
2023-02-18T00:48:17.448Z,41.28
2023-02-18T00:50:45.065Z,38.55
2023-02-18T00:53:11.877Z,40.83
2023-02-18T00:55:44.016Z,40.70
2023-02-18T00:58:11.704Z,41.05
2023-02-18T01:00:38.529Z,36.72
2023-02-18T01:03:09.655Z,43.58
2023-02-18T01:05:37.867Z,40.80
2023-02-18T01:08:05.857Z,40.35
2023-02-18T01:10:32.997Z,41.97
2023-02-18T01:13:00.175Z,41.28
2023-02-18T01:15:27.334Z,40.78
2023-02-18T01:17:54.149Z,45.05
2023-02-18T01:20:21.115Z,39.17
2023-02-18T01:22:48.294Z,41.33
2023-02-18T01:25:15.819Z,43.67
2023-02-18T01:27:42.990Z,40.50
2023-02-18T01:30:13.961Z,40.70
2023-02-18T01:32:40.805Z,39.38
2023-02-18T01:35:08.441Z,42.88
2023-02-18T01:37:35.264Z,43.60
2023-02-18T01:40:02.162Z,44.45
2023-02-18T01:42:30.141Z,40.83
2023-02-18T01:45:29.073Z,43.35
2023-02-18T01:47:55.826Z,39.13
2023-02-18T01:50:22.637Z,44.58
2023-02-18T01:52:49.413Z,40.55
2023-02-18T01:55:16.465Z,41.33
2023-02-18T01:57:43.289Z,40.28
2023-02-18T02:00:21.615Z,41.72
2023-02-18T02:02:51.476Z,39.83
2023-02-18T02:05:20.192Z,40.63
2023-02-18T02:07:50.620Z,38.80
2023-02-18T02:10:18.064Z,35.67
2023-02-18T02:12:55.835Z,42.95
2023-02-18T02:15:45.294Z,39.88
2023-02-18T02:18:21.489Z,36.65
2023-02-18T02:20:54.083Z,37.53
2023-02-18T02:23:26.555Z,38.20
2023-02-18T02:26:34.412Z,38.60
2023-02-18T02:29:30.362Z,36.95
2023-02-18T02:32:30.306Z,37.20
2023-02-18T02:35:04.837Z,36.38
2023-02-18T02:38:00.222Z,38.20
2023-02-18T02:40:34.378Z,36.17
2023-02-18T02:43:20.991Z,35.85
2023-02-18T02:46:06.671Z,35.55
2023-02-18T02:48:59.926Z,35.25
2023-02-18T02:51:55.554Z,34.72
2023-02-18T02:54:25.592Z,36.45
2023-02-18T02:57:08.097Z,33.95
2023-02-18T02:59:37.809Z,33.45
2023-02-18T03:02:23.443Z,34.08
2023-02-18T03:05:27.253Z,34.27
2023-02-18T03:07:56.814Z,34.92
2023-02-18T03:10:35.717Z,33.92
2023-02-18T03:13:10.611Z,36.47
2023-02-18T03:15:57.354Z,37.17
2023-02-18T03:18:33.902Z,32.90
2023-02-18T03:21:07.954Z,36.10
2023-02-18T03:23:57.090Z,36.30
2023-02-18T03:26:26.157Z,36.88
2023-02-18T03:28:56.677Z,38.50
2023-02-18T03:31:28.047Z,36.55
2023-02-18T03:34:05.612Z,36.25
2023-02-18T03:36:34.589Z,36.75
2023-02-18T03:39:19.367Z,38.17
2023-02-18T03:41:46.587Z,36.15
2023-02-18T03:44:13.926Z,38.75
2023-02-18T03:46:46.150Z,38.97
2023-02-18T03:49:14.722Z,40.28
2023-02-18T03:51:41.938Z,35.80
2023-02-18T03:54:09.174Z,36.45
2023-02-18T03:56:37.341Z,37.85
2023-02-18T03:59:04.433Z,36.35
2023-02-18T04:01:31.241Z,37.47
2023-02-18T04:03:58.133Z,38.17
2023-02-18T04:06:25.397Z,37.85
2023-02-18T04:08:52.160Z,35.50
2023-02-18T04:11:18.992Z,38.22
2023-02-18T04:13:45.771Z,35.45
2023-02-18T04:16:13.128Z,36.25
2023-02-18T04:18:39.869Z,34.08
2023-02-18T04:21:06.999Z,34.10
2023-02-18T04:23:33.772Z,32.45
2023-02-18T04:26:00.517Z,33.97
2023-02-18T04:28:27.327Z,34.15
2023-02-18T04:30:54.108Z,32.75
2023-02-18T04:33:20.904Z,33.22
2023-02-18T04:35:47.677Z,33.00
2023-02-18T04:38:14.794Z,33.88
2023-02-18T04:40:41.692Z,31.90
2023-02-18T04:43:08.479Z,27.98
2023-02-18T04:45:35.284Z,30.50
2023-02-18T04:48:02.070Z,31.73
2023-02-18T04:50:28.856Z,31.40
2023-02-18T04:52:55.702Z,28.67
2023-02-18T04:55:22.611Z,29.50
2023-02-18T04:57:49.403Z,30.50
2023-02-18T05:00:19.270Z,27.83
2023-02-18T05:02:46.887Z,28.35
2023-02-18T05:05:14.757Z,28.13
2023-02-18T05:07:42.580Z,29.20
2023-02-18T05:10:11.626Z,29.40
2023-02-18T05:12:38.540Z,29.15
2023-02-18T05:15:05.852Z,29.02
2023-02-18T05:17:32.818Z,24.83
2023-02-18T05:19:59.833Z,25.67
2023-02-18T05:22:26.577Z,27.23
2023-02-18T05:24:53.542Z,28.50
2023-02-18T05:27:20.307Z,28.40
2023-02-18T05:29:47.052Z,26.35
2023-02-18T05:32:13.779Z,28.60
2023-02-18T05:34:40.633Z,28.13
2023-02-18T05:37:07.720Z,29.30
2023-02-18T05:39:34.454Z,28.98
2023-02-18T05:42:01.231Z,27.65
2023-02-18T05:44:30.924Z,28.60
2023-02-18T05:46:59.734Z,34.10
2023-02-18T05:49:26.656Z,28.35
2023-02-18T05:51:53.472Z,28.02
2023-02-18T05:54:20.524Z,27.13
2023-02-18T05:56:47.497Z,25.52
2023-02-18T05:59:14.637Z,25.85
2023-02-18T06:01:41.654Z,24.63
2023-02-18T06:04:08.873Z,23.58
2023-02-18T06:06:36.220Z,24.60
2023-02-18T06:09:04.054Z,21.60
2023-02-18T06:11:31.366Z,21.05
2023-02-18T06:13:58.223Z,19.85
2023-02-18T06:16:25.530Z,21.77
2023-02-18T06:18:52.439Z,20.52
2023-02-18T06:21:19.749Z,20.20
2023-02-18T06:23:46.796Z,19.83
2023-02-18T06:26:14.035Z,19.25
2023-02-18T06:28:41.402Z,18.38
2023-02-18T06:31:08.384Z,18.80
2023-02-18T06:33:35.232Z,19.02
2023-02-18T06:36:08.072Z,16.85
2023-02-18T06:38:35.863Z,16.40
2023-02-18T06:41:02.960Z,16.63
2023-02-18T06:43:30.049Z,16.33
2023-02-18T06:45:56.972Z,14.75
2023-02-18T06:48:24.342Z,15.30
2023-02-18T06:50:51.211Z,14.60
2023-02-18T06:53:18.079Z,16.42
2023-02-18T06:55:45.637Z,15.55
2023-02-18T06:58:13.429Z,14.57
2023-02-18T07:00:40.693Z,14.50
2023-02-18T07:03:08.119Z,13.52
2023-02-18T07:05:35.211Z,14.02
2023-02-18T07:08:02.271Z,15.07
2023-02-18T07:10:29.048Z,16.27
2023-02-18T07:12:55.840Z,13.15
2023-02-18T07:15:24.397Z,13.65
2023-02-18T07:17:52.111Z,12.80
2023-02-18T07:20:20.416Z,11.95
2023-02-18T07:22:48.092Z,12.70
2023-02-18T07:25:15.206Z,11.27
2023-02-18T07:27:41.995Z,9.75
2023-02-18T07:30:09.767Z,8.88
2023-02-18T07:32:36.669Z,8.18
2023-02-18T07:35:05.522Z,8.25
2023-02-18T07:37:32.938Z,5.82
2023-02-18T07:39:59.748Z,5.43
2023-02-18T07:42:26.574Z,4.95
2023-02-18T07:44:53.327Z,4.65
2023-02-18T07:47:20.180Z,5.22
2023-02-18T07:49:47.791Z,4.50
2023-02-18T07:52:15.864Z,4.00
2023-02-18T07:54:42.871Z,4.13
2023-02-18T07:57:09.934Z,4.20
2023-02-18T07:59:36.874Z,3.25
2023-02-18T08:02:05.564Z,3.90
2023-02-18T08:04:32.710Z,3.20
2023-02-18T08:06:59.575Z,3.05
2023-02-18T08:09:26.320Z,3.17
2023-02-18T08:11:53.145Z,3.22
2023-02-18T08:14:19.921Z,2.88
2023-02-18T08:16:46.818Z,2.30
2023-02-18T08:19:13.775Z,3.13
2023-02-18T08:21:40.750Z,2.60
2023-02-18T08:24:08.242Z,2.78
2023-02-18T08:26:35.334Z,3.33
2023-02-18T08:29:02.483Z,2.78
2023-02-18T08:31:31.045Z,2.80
2023-02-18T08:33:59.751Z,3.28
2023-02-18T08:36:27.956Z,2.97
2023-02-18T08:38:54.833Z,3.35
2023-02-18T08:41:21.584Z,3.00
2023-02-18T08:43:48.909Z,3.10
2023-02-18T08:46:24.754Z,2.95
2023-02-18T08:49:01.675Z,3.38
2023-02-18T08:51:28.558Z,3.83
2023-02-18T08:53:55.357Z,3.08
2023-02-18T08:56:22.258Z,6.35
2023-02-18T08:58:49.070Z,3.03
2023-02-18T09:01:15.897Z,3.03
2023-02-18T09:03:42.819Z,3.80
2023-02-18T09:06:09.869Z,3.80
2023-02-18T09:08:36.753Z,3.10
2023-02-18T09:11:04.783Z,3.20
2023-02-18T09:13:32.880Z,3.38
2023-02-18T09:16:03.503Z,3.15
2023-02-18T09:18:31.255Z,3.20
2023-02-18T09:20:59.996Z,3.38
2023-02-18T09:23:28.747Z,3.58
2023-02-18T09:25:56.020Z,3.17
2023-02-18T09:28:23.534Z,3.20
2023-02-18T09:30:50.799Z,3.28
2023-02-18T09:33:18.048Z,3.65
2023-02-18T09:35:46.387Z,3.40
2023-02-18T09:38:16.389Z,3.17
2023-02-18T09:40:48.596Z,3.28
2023-02-18T09:43:38.830Z,3.10
2023-02-18T09:46:13.045Z,2.88
2023-02-18T09:48:40.415Z,2.97
2023-02-18T09:51:07.321Z,2.75
2023-02-18T09:53:34.207Z,2.90
2023-02-18T09:56:02.009Z,3.03
2023-02-18T09:58:31.578Z,3.05
2023-02-18T10:01:29.847Z,2.85
2023-02-18T10:04:07.462Z,3.75
2023-02-18T10:06:35.193Z,2.80
2023-02-18T10:09:06.070Z,2.78
2023-02-18T10:11:39.910Z,3.20
2023-02-18T10:14:12.020Z,2.72
2023-02-18T10:16:39.017Z,2.55
2023-02-18T10:19:29.628Z,2.90
2023-02-18T10:21:57.329Z,2.70
2023-02-18T10:24:24.091Z,2.95
2023-02-18T10:26:50.937Z,2.55
2023-02-18T10:29:21.668Z,3.00
2023-02-18T10:32:00.153Z,3.40
2023-02-18T10:34:42.199Z,2.47
2023-02-18T10:37:33.770Z,2.65
2023-02-18T10:40:38.222Z,2.75
2023-02-18T10:43:22.789Z,2.75
2023-02-18T10:46:15.283Z,2.33
2023-02-18T10:49:00.451Z,2.28
2023-02-18T10:51:31.777Z,2.90
2023-02-18T10:53:58.945Z,2.90
2023-02-18T10:56:33.307Z,2.70
2023-02-18T10:59:12.347Z,2.67
2023-02-18T11:01:40.830Z,2.60
2023-02-18T11:04:15.256Z,2.08
2023-02-18T11:06:46.479Z,2.60
2023-02-18T11:09:41.128Z,2.42
2023-02-18T11:12:17.208Z,1.98
2023-02-18T11:14:49.165Z,2.33
2023-02-18T11:17:27.499Z,2.13
2023-02-18T11:19:57.084Z,2.22
2023-02-18T11:22:34.100Z,2.00
2023-02-18T11:25:04.186Z,2.40
2023-02-18T11:27:43.995Z,2.53
2023-02-18T11:30:24.445Z,1.98
2023-02-18T11:33:18.045Z,1.88
2023-02-18T11:35:56.528Z,1.80
2023-02-18T11:38:33.289Z,3.25
2023-02-18T11:41:12.179Z,2.22
2023-02-18T11:43:43.234Z,2.17
2023-02-18T11:46:20.010Z,1.77
2023-02-18T11:48:47.538Z,2.70
2023-02-18T11:51:24.090Z,2.53
2023-02-18T11:54:02.779Z,2.90
2023-02-18T11:56:35.311Z,2.40
2023-02-18T11:59:04.063Z,2.40
2023-02-18T12:01:47.708Z,2.38
2023-02-18T12:04:29.085Z,2.65
2023-02-18T12:07:16.737Z,2.55
2023-02-18T12:09:49.053Z,2.63
2023-02-18T12:12:31.189Z,2.45
2023-02-18T12:14:59.919Z,2.33
2023-02-18T12:17:47.706Z,3.60
2023-02-18T12:20:51.239Z,2.38
2023-02-18T12:23:21.160Z,2.55
2023-02-18T12:25:55.167Z,2.75
2023-02-18T12:28:24.667Z,3.17
2023-02-18T12:31:19.979Z,2.83
2023-02-18T12:34:11.598Z,2.53
2023-02-18T12:36:38.383Z,2.13
2023-02-18T12:39:07.902Z,3.13
2023-02-18T12:41:50.180Z,2.83
2023-02-18T12:44:22.800Z,2.30
2023-02-18T12:47:18.630Z,3.13
2023-02-18T12:50:19.136Z,2.88
2023-02-18T12:53:15.026Z,2.28
2023-02-18T12:56:07.646Z,2.45
2023-02-18T12:58:40.535Z,2.55
2023-02-18T13:01:28.809Z,3.45
2023-02-18T13:04:27.848Z,2.63
2023-02-18T13:06:54.537Z,2.72
2023-02-18T13:09:42.312Z,3.53
2023-02-18T13:12:18.784Z,2.40
2023-02-18T13:14:57.411Z,2.42
2023-02-18T13:17:27.604Z,2.13
2023-02-18T13:20:05.450Z,2.03
2023-02-18T13:22:33.542Z,2.55
2023-02-18T13:25:00.438Z,2.25
2023-02-18T13:27:29.934Z,2.33
2023-02-18T13:30:15.274Z,2.70
2023-02-18T13:33:19.509Z,2.25
2023-02-18T13:36:00.425Z,2.20
2023-02-18T13:38:56.383Z,2.30
2023-02-18T13:41:25.555Z,2.33
2023-02-18T13:43:52.507Z,2.50
2023-02-18T13:46:25.643Z,2.47
2023-02-18T13:48:53.712Z,2.30
2023-02-18T13:51:40.404Z,2.38
2023-02-18T13:54:13.207Z,2.58
2023-02-18T13:57:03.154Z,2.53
2023-02-18T13:59:39.105Z,2.08
2023-02-18T14:04:55.833Z,2.15
2023-02-18T14:07:35.877Z,2.90
2023-02-18T14:10:13.609Z,2.72
2023-02-18T14:12:56.985Z,3.10
2023-02-18T14:15:23.856Z,2.72
2023-02-18T14:18:08.887Z,2.70
2023-02-18T14:20:38.729Z,2.97
2023-02-18T14:23:20.824Z,3.17
2023-02-18T14:26:12.547Z,3.05
2023-02-18T14:28:47.187Z,3.08
2023-02-18T14:31:14.439Z,2.80
2023-02-18T14:34:01.679Z,2.97
2023-02-18T14:36:39.360Z,3.15
2023-02-18T14:39:30.561Z,3.35
2023-02-18T14:42:10.696Z,3.25
2023-02-18T14:44:47.220Z,3.03
2023-02-18T14:47:50.630Z,3.20
2023-02-18T14:50:20.016Z,3.00
2023-02-18T14:52:56.976Z,3.38
2023-02-18T14:55:30.916Z,2.60
2023-02-18T14:58:08.457Z,2.55
2023-02-18T15:00:40.565Z,3.22
2023-02-18T15:03:15.721Z,2.95
2023-02-18T15:05:43.250Z,2.93
2023-02-18T15:08:17.173Z,2.72
2023-02-18T15:11:06.332Z,2.80
2023-02-18T15:13:44.002Z,4.03
2023-02-18T15:16:33.327Z,3.13
2023-02-18T15:19:06.565Z,3.05
2023-02-18T15:21:39.420Z,2.60
2023-02-18T15:24:07.962Z,2.92
2023-02-18T15:26:46.781Z,2.80
2023-02-18T15:29:20.749Z,2.88
2023-02-18T15:31:49.463Z,2.53
2023-02-18T15:34:38.567Z,2.92
2023-02-18T15:37:08.219Z,3.00
2023-02-18T15:39:38.498Z,3.40
2023-02-18T15:42:28.972Z,3.00
2023-02-18T15:45:01.842Z,3.30
2023-02-18T15:47:29.465Z,3.45
2023-02-18T15:50:00.153Z,3.00
2023-02-18T15:52:32.143Z,3.03
2023-02-18T15:55:07.836Z,3.35
2023-02-18T15:57:37.303Z,2.83
2023-02-18T16:00:25.936Z,2.40
2023-02-18T16:02:55.573Z,3.00
2023-02-18T16:05:27.369Z,3.25
2023-02-18T16:08:00.136Z,2.88
2023-02-18T16:10:36.803Z,3.00
2023-02-18T16:13:04.840Z,2.90
2023-02-18T16:15:42.263Z,3.00
2023-02-18T16:18:39.611Z,3.03
2023-02-18T16:21:44.337Z,2.88
2023-02-18T16:24:26.143Z,2.75
2023-02-18T16:26:57.569Z,3.42
2023-02-18T16:29:27.329Z,2.83
2023-02-18T16:31:54.403Z,3.10
2023-02-18T16:34:21.353Z,3.10
2023-02-18T16:37:06.991Z,3.30
2023-02-18T16:39:35.157Z,3.08
2023-02-18T16:42:02.460Z,2.75
2023-02-18T16:44:29.241Z,2.97
2023-02-18T16:46:57.334Z,3.30
2023-02-18T16:49:24.641Z,2.67
2023-02-18T16:51:51.507Z,3.42
2023-02-18T16:54:18.899Z,2.83
2023-02-18T16:56:45.730Z,2.70
2023-02-18T16:59:12.648Z,3.05
2023-02-18T17:01:44.357Z,3.85
2023-02-18T17:04:14.003Z,3.58
2023-02-18T17:06:41.275Z,3.10
2023-02-18T17:09:22.972Z,3.35
2023-02-18T17:11:51.990Z,3.08
2023-02-18T17:14:20.671Z,3.15
2023-02-18T17:16:49.520Z,3.15
2023-02-18T17:19:17.192Z,3.50
2023-02-18T17:21:44.263Z,3.55
2023-02-18T17:24:16.530Z,3.30
2023-02-18T17:26:43.791Z,3.40
2023-02-18T17:29:10.965Z,3.40
2023-02-18T17:31:41.897Z,3.60
2023-02-18T17:34:14.166Z,4.03
2023-02-18T17:36:45.392Z,3.28
2023-02-18T17:39:14.428Z,4.03
2023-02-18T17:41:41.972Z,4.93
2023-02-18T17:44:20.197Z,3.70
2023-02-18T17:46:50.103Z,4.85
2023-02-18T17:49:17.239Z,3.65
2023-02-18T17:51:44.408Z,4.35
2023-02-18T17:54:20.004Z,4.38
2023-02-18T17:56:47.184Z,4.20
2023-02-18T17:59:14.123Z,3.85
2023-02-18T18:01:41.147Z,4.10
2023-02-18T18:04:16.908Z,4.15
2023-02-18T18:06:45.738Z,4.18
2023-02-18T18:09:12.608Z,4.45
2023-02-18T18:11:39.558Z,4.60
2023-02-18T18:14:06.340Z,5.07
2023-02-18T18:16:34.320Z,4.25
2023-02-18T18:19:01.063Z,4.63
2023-02-18T18:21:34.497Z,5.28
2023-02-18T18:24:01.840Z,4.25
2023-02-18T18:26:29.205Z,4.18
2023-02-18T18:28:55.982Z,5.13
2023-02-18T18:31:22.888Z,4.40
2023-02-18T18:33:53.116Z,5.13
2023-02-18T18:36:21.525Z,3.90
2023-02-18T18:38:48.316Z,4.00
2023-02-18T18:41:17.499Z,4.72
2023-02-18T18:43:44.851Z,4.68
2023-02-18T18:46:11.611Z,3.47
2023-02-18T18:48:38.453Z,4.45
2023-02-18T18:51:05.876Z,5.05
2023-02-18T18:53:34.836Z,4.72
2023-02-18T18:56:05.012Z,4.18
2023-02-18T18:58:32.305Z,3.60
2023-02-18T19:01:01.876Z,3.40
2023-02-18T19:03:29.910Z,3.60
2023-02-18T19:05:58.033Z,4.03
2023-02-18T19:08:25.526Z,3.97
2023-02-18T19:10:57.264Z,3.60
2023-02-18T19:13:27.006Z,4.38
2023-02-18T19:16:04.271Z,4.07
2023-02-18T19:18:33.787Z,3.85
2023-02-18T19:21:05.257Z,4.30
2023-02-18T19:23:32.880Z,4.45
2023-02-18T19:26:00.133Z,4.25
2023-02-18T19:28:27.544Z,3.70
2023-02-18T19:30:54.559Z,3.78
2023-02-18T19:33:21.460Z,3.72
2023-02-18T19:35:48.209Z,4.30
2023-02-18T19:38:17.483Z,3.90
2023-02-18T19:40:45.232Z,4.22
2023-02-18T19:43:12.757Z,3.72
2023-02-18T19:45:44.708Z,3.83
2023-02-18T19:48:12.904Z,4.00
2023-02-18T19:50:41.718Z,3.53
2023-02-18T19:53:09.360Z,3.80
2023-02-18T19:55:36.435Z,3.60
2023-02-18T19:58:03.557Z,3.63
2023-02-18T20:00:30.501Z,3.55
2023-02-18T20:02:58.329Z,3.70
2023-02-18T20:05:25.294Z,3.80
2023-02-18T20:07:52.086Z,4.47
2023-02-18T20:10:22.668Z,3.67
2023-02-18T20:12:53.880Z,3.60
2023-02-18T20:15:21.619Z,3.20
2023-02-18T20:17:48.953Z,4.15
2023-02-18T20:20:16.300Z,4.00
2023-02-18T20:22:43.146Z,4.00
2023-02-18T20:25:10.052Z,3.90
2023-02-18T20:27:42.980Z,3.35
2023-02-18T20:30:15.041Z,3.65
2023-02-18T20:32:41.821Z,4.22
2023-02-18T20:35:09.364Z,3.67
2023-02-18T20:37:36.308Z,3.75
2023-02-18T20:40:03.387Z,4.75
2023-02-18T20:42:30.256Z,3.15
2023-02-18T20:44:57.088Z,3.72
2023-02-18T20:47:23.913Z,4.57
2023-02-18T20:49:50.655Z,4.30
2023-02-18T20:52:17.434Z,3.33
2023-02-18T20:54:44.259Z,3.97
2023-02-18T20:57:11.076Z,3.85
2023-02-18T20:59:38.013Z,4.13
2023-02-18T21:02:04.997Z,3.90
2023-02-18T21:04:31.910Z,4.18
2023-02-18T21:06:58.679Z,4.47
2023-02-18T21:09:25.959Z,4.32
2023-02-18T21:11:52.731Z,4.95
2023-02-18T21:14:19.531Z,4.88
2023-02-18T21:16:46.456Z,4.30
2023-02-18T21:19:16.886Z,5.15
2023-02-18T21:21:44.852Z,5.22
2023-02-18T21:24:11.734Z,4.55
2023-02-18T21:26:38.735Z,4.40
2023-02-18T21:29:08.034Z,4.45
2023-02-18T21:31:38.071Z,4.47
2023-02-18T21:34:07.186Z,4.20
2023-02-18T21:36:34.289Z,5.20
2023-02-18T21:39:03.758Z,4.55
2023-02-18T21:41:30.861Z,4.07
2023-02-18T21:43:58.168Z,4.20
2023-02-18T21:46:27.044Z,4.18
2023-02-18T21:49:03.454Z,4.30
2023-02-18T21:51:58.184Z,4.28
2023-02-18T21:54:31.064Z,4.00
2023-02-18T21:56:59.392Z,4.78
2023-02-18T21:59:28.211Z,3.85
2023-02-18T22:01:55.723Z,4.93
2023-02-18T22:04:23.503Z,4.43
2023-02-18T22:06:50.327Z,4.50
2023-02-18T22:09:17.116Z,4.70
2023-02-18T22:11:44.420Z,4.20
2023-02-18T22:14:12.847Z,5.63
2023-02-18T22:16:40.726Z,3.90
2023-02-18T22:19:08.095Z,4.70
2023-02-18T22:21:34.890Z,4.53
2023-02-18T22:24:01.869Z,4.13
2023-02-18T22:26:28.636Z,4.75
2023-02-18T22:28:57.396Z,4.68
2023-02-18T22:31:25.557Z,4.15
2023-02-18T22:33:53.552Z,4.28
2023-02-18T22:36:22.216Z,3.75
2023-02-18T22:38:49.876Z,4.88
2023-02-18T22:41:19.356Z,4.32
2023-02-18T22:43:46.512Z,4.43
2023-02-18T22:46:16.501Z,4.13
2023-02-18T22:48:44.096Z,4.55
2023-02-18T22:51:17.593Z,4.50
2023-02-18T22:53:45.317Z,4.10
2023-02-18T22:56:14.612Z,4.63
2023-02-18T22:58:42.859Z,4.20
2023-02-18T23:01:19.810Z,4.03
2023-02-18T23:03:46.946Z,4.10
2023-02-18T23:06:14.343Z,4.10
2023-02-18T23:08:41.208Z,4.50
2023-02-18T23:11:10.697Z,3.80
2023-02-18T23:13:37.755Z,4.00
2023-02-18T23:16:07.712Z,4.07
2023-02-18T23:18:35.609Z,4.10
2023-02-18T23:21:22.791Z,4.00
2023-02-18T23:23:54.509Z,3.70
2023-02-18T23:26:25.707Z,4.45
2023-02-18T23:28:53.691Z,4.18
2023-02-18T23:31:25.447Z,4.32
2023-02-18T23:33:58.027Z,4.53
2023-02-18T23:36:26.912Z,4.18
2023-02-18T23:38:57.315Z,4.63
2023-02-18T23:41:24.922Z,3.90
2023-02-18T23:43:52.650Z,4.15
2023-02-18T23:46:21.602Z,4.13
2023-02-18T23:48:49.243Z,3.60
2023-02-18T23:51:19.272Z,4.00
2023-02-18T23:53:46.058Z,4.18
2023-02-18T23:56:15.643Z,4.03
2023-02-18T23:58:45.453Z,4.47
